sensor_id;sensor_type;location;lat;lon;timestamp;temperature;humidity
2543;DHT22;1116;51.502;7.414;2024-03-02T00:00:27;9.10;11.70
2543;DHT22;1116;51.502;7.414;2024-03-02T00:03:00;9.00;11.80
2543;DHT22;1116;51.502;7.414;2024-03-02T00:05:30;9.00;11.90
2543;DHT22;1116;51.502;7.414;2024-03-02T00:08:00;9.00;11.90
2543;DHT22;1116;51.502;7.414;2024-03-02T00:10:39;9.00;11.40
2543;DHT22;1116;51.502;7.414;2024-03-02T00:13:09;9.10;11.20
2543;DHT22;1116;51.502;7.414;2024-03-02T00:15:45;9.10;11.00
2543;DHT22;1116;51.502;7.414;2024-03-02T00:18:23;9.00;11.10
2543;DHT22;1116;51.502;7.414;2024-03-02T00:20:54;9.00;11.50
2543;DHT22;1116;51.502;7.414;2024-03-02T00:23:28;9.00;11.30
2543;DHT22;1116;51.502;7.414;2024-03-02T00:25:59;9.10;11.20
2543;DHT22;1116;51.502;7.414;2024-03-02T00:28:31;9.10;11.60
2543;DHT22;1116;51.502;7.414;2024-03-02T00:31:03;9.10;11.20
2543;DHT22;1116;51.502;7.414;2024-03-02T00:33:41;9.10;11.50
2543;DHT22;1116;51.502;7.414;2024-03-02T00:36:12;9.00;11.20
2543;DHT22;1116;51.502;7.414;2024-03-02T00:38:47;9.00;11.30
2543;DHT22;1116;51.502;7.414;2024-03-02T00:41:21;9.00;11.40
2543;DHT22;1116;51.502;7.414;2024-03-02T00:43:57;9.00;11.30
2543;DHT22;1116;51.502;7.414;2024-03-02T00:46:33;9.10;10.90
2543;DHT22;1116;51.502;7.414;2024-03-02T00:49:13;9.10;10.90
2543;DHT22;1116;51.502;7.414;2024-03-02T00:51:47;9.00;11.00
2543;DHT22;1116;51.502;7.414;2024-03-02T00:54:20;9.00;10.90
2543;DHT22;1116;51.502;7.414;2024-03-02T00:56:52;9.00;11.20
2543;DHT22;1116;51.502;7.414;2024-03-02T00:59:23;9.30;11.30
2543;DHT22;1116;51.502;7.414;2024-03-02T01:01:53;9.00;11.00
2543;DHT22;1116;51.502;7.414;2024-03-02T01:04:26;9.00;11.00
2543;DHT22;1116;51.502;7.414;2024-03-02T01:06:56;9.10;11.20
2543;DHT22;1116;51.502;7.414;2024-03-02T01:09:27;9.00;10.90
2543;DHT22;1116;51.502;7.414;2024-03-02T01:11:57;9.00;10.70
2543;DHT22;1116;51.502;7.414;2024-03-02T01:14:27;9.00;10.80
2543;DHT22;1116;51.502;7.414;2024-03-02T01:16:57;9.00;10.70
2543;DHT22;1116;51.502;7.414;2024-03-02T01:19:29;9.00;10.80
2543;DHT22;1116;51.502;7.414;2024-03-02T01:21:59;9.00;10.60
2543;DHT22;1116;51.502;7.414;2024-03-02T01:24:29;9.00;10.70
2543;DHT22;1116;51.502;7.414;2024-03-02T01:27:00;9.00;10.80
2543;DHT22;1116;51.502;7.414;2024-03-02T01:29:29;9.00;10.90
2543;DHT22;1116;51.502;7.414;2024-03-02T01:32:00;9.00;11.00
2543;DHT22;1116;51.502;7.414;2024-03-02T01:34:32;9.00;11.10
2543;DHT22;1116;51.502;7.414;2024-03-02T01:37:02;9.00;11.10
2543;DHT22;1116;51.502;7.414;2024-03-02T01:39:33;9.00;11.50
2543;DHT22;1116;51.502;7.414;2024-03-02T01:42:04;8.90;10.80
2543;DHT22;1116;51.502;7.414;2024-03-02T01:44:34;9.00;11.10
2543;DHT22;1116;51.502;7.414;2024-03-02T01:47:04;9.00;10.70
2543;DHT22;1116;51.502;7.414;2024-03-02T01:49:36;8.90;10.80
2543;DHT22;1116;51.502;7.414;2024-03-02T01:52:08;8.90;10.90
2543;DHT22;1116;51.502;7.414;2024-03-02T01:54:38;8.80;11.00
2543;DHT22;1116;51.502;7.414;2024-03-02T01:57:07;8.90;10.70
2543;DHT22;1116;51.502;7.414;2024-03-02T01:59:37;8.90;10.40
2543;DHT22;1116;51.502;7.414;2024-03-02T02:02:08;8.90;10.70
2543;DHT22;1116;51.502;7.414;2024-03-02T02:04:40;8.90;10.70
2543;DHT22;1116;51.502;7.414;2024-03-02T02:07:10;8.90;10.80
2543;DHT22;1116;51.502;7.414;2024-03-02T02:09:41;8.80;10.80
2543;DHT22;1116;51.502;7.414;2024-03-02T02:12:11;9.00;11.00
2543;DHT22;1116;51.502;7.414;2024-03-02T02:14:47;8.50;10.90
2543;DHT22;1116;51.502;7.414;2024-03-02T02:17:18;8.90;11.60
2543;DHT22;1116;51.502;7.414;2024-03-02T02:19:50;8.80;10.50
2543;DHT22;1116;51.502;7.414;2024-03-02T02:22:23;8.90;10.70
2543;DHT22;1116;51.502;7.414;2024-03-02T02:24:53;8.90;10.50
2543;DHT22;1116;51.502;7.414;2024-03-02T02:27:23;8.80;10.50
2543;DHT22;1116;51.502;7.414;2024-03-02T02:29:53;8.80;10.30
2543;DHT22;1116;51.502;7.414;2024-03-02T02:32:23;8.90;10.10
2543;DHT22;1116;51.502;7.414;2024-03-02T02:34:53;8.90;10.40
2543;DHT22;1116;51.502;7.414;2024-03-02T02:37:25;8.90;10.30
2543;DHT22;1116;51.502;7.414;2024-03-02T02:39:55;8.80;9.90
2543;DHT22;1116;51.502;7.414;2024-03-02T02:42:26;8.80;10.00
2543;DHT22;1116;51.502;7.414;2024-03-02T02:44:56;8.90;10.00
2543;DHT22;1116;51.502;7.414;2024-03-02T02:47:25;8.90;9.90
2543;DHT22;1116;51.502;7.414;2024-03-02T02:49:56;9.00;9.40
2543;DHT22;1116;51.502;7.414;2024-03-02T02:52:31;9.00;9.40
2543;DHT22;1116;51.502;7.414;2024-03-02T02:55:06;9.00;9.70
2543;DHT22;1116;51.502;7.414;2024-03-02T02:57:38;9.00;9.90
2543;DHT22;1116;51.502;7.414;2024-03-02T03:00:12;9.00;9.40
2543;DHT22;1116;51.502;7.414;2024-03-02T03:02:47;9.00;9.20
2543;DHT22;1116;51.502;7.414;2024-03-02T03:05:18;9.00;9.50
2543;DHT22;1116;51.502;7.414;2024-03-02T03:07:51;9.00;8.70
2543;DHT22;1116;51.502;7.414;2024-03-02T03:10:21;9.00;8.70
2543;DHT22;1116;51.502;7.414;2024-03-02T03:12:54;9.00;9.00
2543;DHT22;1116;51.502;7.414;2024-03-02T03:15:24;9.00;9.40
2543;DHT22;1116;51.502;7.414;2024-03-02T03:17:54;9.00;9.40
2543;DHT22;1116;51.502;7.414;2024-03-02T03:20:24;9.00;9.50
2543;DHT22;1116;51.502;7.414;2024-03-02T03:22:57;9.00;9.80
2543;DHT22;1116;51.502;7.414;2024-03-02T03:25:27;9.00;9.10
2543;DHT22;1116;51.502;7.414;2024-03-02T03:27:57;9.00;9.10
2543;DHT22;1116;51.502;7.414;2024-03-02T03:30:24;9.00;8.60
2543;DHT22;1116;51.502;7.414;2024-03-02T03:32:54;9.00;8.60
2543;DHT22;1116;51.502;7.414;2024-03-02T03:35:25;9.00;9.20
2543;DHT22;1116;51.502;7.414;2024-03-02T03:37:57;9.00;8.20
2543;DHT22;1116;51.502;7.414;2024-03-02T03:40:27;9.10;8.80
2543;DHT22;1116;51.502;7.414;2024-03-02T03:42:57;9.10;8.40
2543;DHT22;1116;51.502;7.414;2024-03-02T03:45:27;9.10;8.50
2543;DHT22;1116;51.502;7.414;2024-03-02T03:47:57;9.10;8.60
2543;DHT22;1116;51.502;7.414;2024-03-02T03:50:27;9.10;8.30
2543;DHT22;1116;51.502;7.414;2024-03-02T03:53:00;9.10;8.20
2543;DHT22;1116;51.502;7.414;2024-03-02T03:55:30;9.10;8.40
2543;DHT22;1116;51.502;7.414;2024-03-02T03:58:00;9.20;8.10
2543;DHT22;1116;51.502;7.414;2024-03-02T04:00:30;9.20;8.10
2543;DHT22;1116;51.502;7.414;2024-03-02T04:03:00;9.20;7.90
2543;DHT22;1116;51.502;7.414;2024-03-02T04:05:30;9.20;7.90
2543;DHT22;1116;51.502;7.414;2024-03-02T04:08:03;9.20;7.70
2543;DHT22;1116;51.502;7.414;2024-03-02T04:10:33;9.30;7.60
2543;DHT22;1116;51.502;7.414;2024-03-02T04:13:03;9.20;7.60
2543;DHT22;1116;51.502;7.414;2024-03-02T04:15:34;9.40;7.10
2543;DHT22;1116;51.502;7.414;2024-03-02T04:18:04;9.30;7.30
2543;DHT22;1116;51.502;7.414;2024-03-02T04:20:35;9.30;7.50
2543;DHT22;1116;51.502;7.414;2024-03-02T04:23:08;9.30;6.90
2543;DHT22;1116;51.502;7.414;2024-03-02T04:25:37;9.30;7.20
2543;DHT22;1116;51.502;7.414;2024-03-02T04:28:07;9.30;7.20
2543;DHT22;1116;51.502;7.414;2024-03-02T04:30:38;9.30;7.10
2543;DHT22;1116;51.502;7.414;2024-03-02T04:33:09;9.30;7.40
2543;DHT22;1116;51.502;7.414;2024-03-02T04:35:40;9.40;7.30
2543;DHT22;1116;51.502;7.414;2024-03-02T04:38:12;9.30;7.30
2543;DHT22;1116;51.502;7.414;2024-03-02T04:40:42;9.30;7.30
2543;DHT22;1116;51.502;7.414;2024-03-02T04:43:12;9.40;7.10
2543;DHT22;1116;51.502;7.414;2024-03-02T04:45:43;9.40;7.40
2543;DHT22;1116;51.502;7.414;2024-03-02T04:48:13;9.40;6.80
2543;DHT22;1116;51.502;7.414;2024-03-02T04:50:43;9.30;7.30
2543;DHT22;1116;51.502;7.414;2024-03-02T04:53:16;9.30;7.10
2543;DHT22;1116;51.502;7.414;2024-03-02T04:55:43;9.20;7.60
2543;DHT22;1116;51.502;7.414;2024-03-02T04:58:46;9.20;8.10
2543;DHT22;1116;51.502;7.414;2024-03-02T05:01:16;9.20;8.50
2543;DHT22;1116;51.502;7.414;2024-03-02T05:03:47;9.30;7.90
2543;DHT22;1116;51.502;7.414;2024-03-02T05:06:17;9.20;8.50
2543;DHT22;1116;51.502;7.414;2024-03-02T05:08:49;9.20;7.90
2543;DHT22;1116;51.502;7.414;2024-03-02T05:11:19;9.20;8.00
2543;DHT22;1116;51.502;7.414;2024-03-02T05:14:15;9.20;8.40
2543;DHT22;1116;51.502;7.414;2024-03-02T05:16:45;9.10;8.10
2543;DHT22;1116;51.502;7.414;2024-03-02T05:19:15;9.10;8.10
2543;DHT22;1116;51.502;7.414;2024-03-02T05:21:45;9.00;8.60
2543;DHT22;1116;51.502;7.414;2024-03-02T05:24:19;9.10;8.50
2543;DHT22;1116;51.502;7.414;2024-03-02T05:26:49;9.00;9.00
2543;DHT22;1116;51.502;7.414;2024-03-02T05:29:19;9.00;8.60
2543;DHT22;1116;51.502;7.414;2024-03-02T05:31:50;9.00;8.80
2543;DHT22;1116;51.502;7.414;2024-03-02T05:34:20;9.00;8.90
2543;DHT22;1116;51.502;7.414;2024-03-02T05:36:50;9.00;9.00
2543;DHT22;1116;51.502;7.414;2024-03-02T05:39:23;8.90;9.00
2543;DHT22;1116;51.502;7.414;2024-03-02T05:41:53;8.80;9.40
2543;DHT22;1116;51.502;7.414;2024-03-02T05:44:23;8.80;9.90
2543;DHT22;1116;51.502;7.414;2024-03-02T05:46:52;8.70;10.20
2543;DHT22;1116;51.502;7.414;2024-03-02T05:49:22;8.70;10.10
2543;DHT22;1116;51.502;7.414;2024-03-02T05:51:52;8.70;10.00
2543;DHT22;1116;51.502;7.414;2024-03-02T05:54:25;8.70;10.00
2543;DHT22;1116;51.502;7.414;2024-03-02T05:56:55;8.70;9.80
2543;DHT22;1116;51.502;7.414;2024-03-02T05:59:43;8.70;10.10
2543;DHT22;1116;51.502;7.414;2024-03-02T06:02:13;8.70;10.10
2543;DHT22;1116;51.502;7.414;2024-03-02T06:04:43;8.60;10.20
2543;DHT22;1116;51.502;7.414;2024-03-02T06:07:13;8.60;10.30
2543;DHT22;1116;51.502;7.414;2024-03-02T06:09:46;8.70;10.50
2543;DHT22;1116;51.502;7.414;2024-03-02T06:12:18;8.70;10.70
2543;DHT22;1116;51.502;7.414;2024-03-02T06:14:48;8.60;10.00
2543;DHT22;1116;51.502;7.414;2024-03-02T06:17:18;8.70;10.30
2543;DHT22;1116;51.502;7.414;2024-03-02T06:19:48;8.70;10.30
2543;DHT22;1116;51.502;7.414;2024-03-02T06:22:18;8.70;9.90
2543;DHT22;1116;51.502;7.414;2024-03-02T06:24:52;8.70;10.20
2543;DHT22;1116;51.502;7.414;2024-03-02T06:27:22;8.70;10.30
2543;DHT22;1116;51.502;7.414;2024-03-02T06:29:52;8.70;9.90
2543;DHT22;1116;51.502;7.414;2024-03-02T06:32:22;8.70;10.00
2543;DHT22;1116;51.502;7.414;2024-03-02T06:34:52;8.70;10.20
2543;DHT22;1116;51.502;7.414;2024-03-02T06:37:22;8.80;10.20
2543;DHT22;1116;51.502;7.414;2024-03-02T06:39:55;8.80;9.90
2543;DHT22;1116;51.502;7.414;2024-03-02T06:42:25;8.70;9.90
2543;DHT22;1116;51.502;7.414;2024-03-02T06:45:00;8.70;10.10
2543;DHT22;1116;51.502;7.414;2024-03-02T06:47:30;8.70;10.30
2543;DHT22;1116;51.502;7.414;2024-03-02T06:50:00;8.70;10.60
2543;DHT22;1116;51.502;7.414;2024-03-02T06:52:30;8.70;10.40
